メインページ
METAR-TAF:

METAR-TAF

空港 :

Lewistown Municipal Airport

Lewistown, モンタナ州, アメリカ合衆国

緯度: 47-02-57N, 経度: 109-27-59W, 海抜: 1270m

現時点の気象観測

当レポートは31分前の04:54(UTC)に作成
西の風 5kt
気温 12°C
湿度 58%
気圧 1016 hPa
視程: 16.1km
晴天

METAR: KLWT 270454Z AUTO 27005KT 10SM CLR 12/04 A2999 RMK AO2 SLP136 T01170039

時間: 23:25 (05:25 UTC)

予報

当レポートは6時間5分前の23:20(UTC)に作成
予報は27日の 00時(UTC)から 27日の 24時(UTC)まで有効
西/北西の風 15kt、最大23ktの突風を伴う
視程: 10km
高度7000ftの雲は散在している
高度12000ftの千切れ雲あり
27日の 0200時(UTC)から
西の風 7kt
視程: 10km
高度8000ftの雲は散在している
27日の 1900時(UTC)から
北/北西の風 7kt
視程: 10km
高度8000ftの雲は散在している

TAF: KLWT 262320Z 2700/2724 30015G23KT P6SM SCT070 BKN120 FM270200 27007KT P6SM SCT080 FM271900 33007KT P6SM SCT080

4,000以上の空港の気象観測と天気予報(METAR報とTAF報)

利用可能な観測所は地図上に黄色い丸と赤い丸で示す。

丸の上にカーソルを重ねると観測所名を参照できる。

次にクリックすると気象観測と天気予報を参照できる。

マップの切り替え:黒色「×」印の緑ボタンをクリックして拡大、「-」印の緑ボタンをクリックして縮小、緑色の三角印をクリックして隣りの地図に切り替え


METAR-TAF: